sensor_id;sensor_type;location;lat;lon;timestamp;pressure;altitude;pressure_sealevel;temperature;humidity
79461;BME280;68929;42.666;23.324;2023-04-06T00:00:51;94269.09;;;4.73;55.49
79461;BME280;68929;42.666;23.324;2023-04-06T00:03:17;94258.34;;;4.47;54.23
79461;BME280;68929;42.666;23.324;2023-04-06T00:05:43;94228.28;;;5.75;55.13
79461;BME280;68929;42.666;23.324;2023-04-06T00:08:08;94244.47;;;6.19;52.69
79461;BME280;68929;42.666;23.324;2023-04-06T00:10:34;94253.03;;;4.40;57.32
79461;BME280;68929;42.666;23.324;2023-04-06T00:12:59;94221.34;;;4.50;57.84
79461;BME280;68929;42.666;23.324;2023-04-06T00:15:25;94245.81;;;5.33;55.43
79461;BME280;68929;42.666;23.324;2023-04-06T00:17:51;94250.78;;;5.28;53.00
79461;BME280;68929;42.666;23.324;2023-04-06T00:20:17;94242.63;;;4.89;57.03
79461;BME280;68929;42.666;23.324;2023-04-06T00:22:43;94225.06;;;4.62;55.90
79461;BME280;68929;42.666;23.324;2023-04-06T00:25:09;94225.88;;;5.11;54.22
79461;BME280;68929;42.666;23.324;2023-04-06T00:27:36;94228.91;;;5.42;49.26
79461;BME280;68929;42.666;23.324;2023-04-06T00:30:05;94218.09;;;4.48;54.97
79461;BME280;68929;42.666;23.324;2023-04-06T00:32:31;94220.38;;;5.27;55.99
79461;BME280;68929;42.666;23.324;2023-04-06T00:34:57;94232.66;;;5.27;53.76
79461;BME280;68929;42.666;23.324;2023-04-06T00:37:23;94220.97;;;5.02;55.60
79461;BME280;68929;42.666;23.324;2023-04-06T00:39:48;94215.47;;;4.69;55.75
79461;BME280;68929;42.666;23.324;2023-04-06T00:42:14;94211.50;;;5.62;54.61
79461;BME280;68929;42.666;23.324;2023-04-06T00:44:40;94214.16;;;5.07;49.51
79461;BME280;68929;42.666;23.324;2023-04-06T00:47:07;94207.00;;;4.67;55.59
79461;BME280;68929;42.666;23.324;2023-04-06T00:49:33;94218.22;;;5.78;53.74
79461;BME280;68929;42.666;23.324;2023-04-06T00:51:59;94214.66;;;5.17;54.90
79461;BME280;68929;42.666;23.324;2023-04-06T00:54:25;94213.22;;;4.66;54.23
79461;BME280;68929;42.666;23.324;2023-04-06T00:56:51;94209.84;;;5.21;54.42
79461;BME280;68929;42.666;23.324;2023-04-06T00:59:16;94199.00;;;5.30;55.42
79461;BME280;68929;42.666;23.324;2023-04-06T01:01:42;94213.13;;;6.04;53.72
79461;BME280;68929;42.666;23.324;2023-04-06T01:04:07;94216.03;;;5.47;54.52
79461;BME280;68929;42.666;23.324;2023-04-06T01:06:33;94172.66;;;5.04;54.34
79461;BME280;68929;42.666;23.324;2023-04-06T01:08:58;94205.91;;;5.38;48.96
79461;BME280;68929;42.666;23.324;2023-04-06T01:11:24;94192.06;;;4.61;56.68
79461;BME280;68929;42.666;23.324;2023-04-06T01:13:50;94215.38;;;5.05;53.95
79461;BME280;68929;42.666;23.324;2023-04-06T01:16:15;94215.28;;;5.88;52.27
79461;BME280;68929;42.666;23.324;2023-04-06T01:18:41;94200.66;;;6.13;52.34
79461;BME280;68929;42.666;23.324;2023-04-06T01:21:07;94209.03;;;5.95;49.00
79461;BME280;68929;42.666;23.324;2023-04-06T01:23:34;94183.50;;;5.01;54.76
79461;BME280;68929;42.666;23.324;2023-04-06T01:25:59;94189.78;;;5.41;54.06
79461;BME280;68929;42.666;23.324;2023-04-06T01:28:25;94199.31;;;5.14;51.56
79461;BME280;68929;42.666;23.324;2023-04-06T01:30:51;94198.59;;;6.02;56.37
79461;BME280;68929;42.666;23.324;2023-04-06T01:33:16;94191.44;;;6.50;49.97
79461;BME280;68929;42.666;23.324;2023-04-06T01:35:41;94197.13;;;5.52;51.94
79461;BME280;68929;42.666;23.324;2023-04-06T01:38:07;94197.28;;;6.45;54.68
79461;BME280;68929;42.666;23.324;2023-04-06T01:40:32;94183.59;;;5.48;49.20
79461;BME280;68929;42.666;23.324;2023-04-06T01:42:58;94195.59;;;3.75;57.42
79461;BME280;68929;42.666;23.324;2023-04-06T01:45:23;94178.69;;;4.14;57.05
79461;BME280;68929;42.666;23.324;2023-04-06T01:47:48;94199.53;;;3.71;57.86
79461;BME280;68929;42.666;23.324;2023-04-06T01:50:14;94188.56;;;3.61;54.67
79461;BME280;68929;42.666;23.324;2023-04-06T01:52:40;94171.13;;;3.18;58.76
79461;BME280;68929;42.666;23.324;2023-04-06T01:55:06;94165.47;;;3.79;61.29
79461;BME280;68929;42.666;23.324;2023-04-06T01:57:32;94164.78;;;4.76;55.44
79461;BME280;68929;42.666;23.324;2023-04-06T01:59:57;94176.78;;;4.22;57.91
79461;BME280;68929;42.666;23.324;2023-04-06T02:02:22;94172.72;;;4.62;52.65
79461;BME280;68929;42.666;23.324;2023-04-06T02:04:48;94168.31;;;5.24;57.60
79461;BME280;68929;42.666;23.324;2023-04-06T02:07:13;94168.69;;;5.90;54.34
79461;BME280;68929;42.666;23.324;2023-04-06T02:09:39;94179.97;;;5.84;53.04
79461;BME280;68929;42.666;23.324;2023-04-06T02:12:32;94180.44;;;6.13;52.02
79461;BME280;68929;42.666;23.324;2023-04-06T02:14:57;94179.47;;;5.05;53.04
79461;BME280;68929;42.666;23.324;2023-04-06T02:17:23;94183.09;;;5.32;53.61
79461;BME280;68929;42.666;23.324;2023-04-06T02:19:48;94170.22;;;5.03;55.29
79461;BME280;68929;42.666;23.324;2023-04-06T02:22:13;94183.69;;;6.09;55.90
79461;BME280;68929;42.666;23.324;2023-04-06T02:24:39;94185.59;;;6.93;52.57
79461;BME280;68929;42.666;23.324;2023-04-06T02:27:05;94180.25;;;6.15;55.74
79461;BME280;68929;42.666;23.324;2023-04-06T02:29:31;94179.19;;;5.96;51.62
79461;BME280;68929;42.666;23.324;2023-04-06T02:31:56;94165.56;;;6.53;49.26
79461;BME280;68929;42.666;23.324;2023-04-06T02:34:21;94189.13;;;6.14;49.03
79461;BME280;68929;42.666;23.324;2023-04-06T02:36:47;94174.91;;;6.75;50.65
79461;BME280;68929;42.666;23.324;2023-04-06T02:39:13;94180.53;;;7.31;50.38
79461;BME280;68929;42.666;23.324;2023-04-06T02:41:39;94165.00;;;6.64;46.85
79461;BME280;68929;42.666;23.324;2023-04-06T02:44:07;94172.09;;;7.03;53.25
79461;BME280;68929;42.666;23.324;2023-04-06T02:46:33;94181.69;;;6.24;48.54
79461;BME280;68929;42.666;23.324;2023-04-06T02:48:59;94168.72;;;5.21;51.34
79461;BME280;68929;42.666;23.324;2023-04-06T02:51:26;94167.81;;;5.83;54.36
79461;BME280;68929;42.666;23.324;2023-04-06T02:53:51;94175.69;;;5.42;50.99
79461;BME280;68929;42.666;23.324;2023-04-06T02:56:17;94183.47;;;4.46;54.13
79461;BME280;68929;42.666;23.324;2023-04-06T02:58:42;94182.16;;;3.64;54.00
79461;BME280;68929;42.666;23.324;2023-04-06T03:01:08;94167.19;;;4.78;57.73
79461;BME280;68929;42.666;23.324;2023-04-06T03:03:33;94180.44;;;4.70;54.82
79461;BME280;68929;42.666;23.324;2023-04-06T03:05:59;94165.59;;;3.42;54.17
79461;BME280;68929;42.666;23.324;2023-04-06T03:08:25;94152.13;;;3.74;54.05
79461;BME280;68929;42.666;23.324;2023-04-06T03:10:50;94167.47;;;3.77;53.84
79461;BME280;68929;42.666;23.324;2023-04-06T03:13:16;94166.34;;;4.71;53.54
79461;BME280;68929;42.666;23.324;2023-04-06T03:15:41;94154.72;;;3.24;54.60
79461;BME280;68929;42.666;23.324;2023-04-06T03:18:07;94171.84;;;3.12;55.23
79461;BME280;68929;42.666;23.324;2023-04-06T03:20:32;94182.19;;;5.18;56.18
79461;BME280;68929;42.666;23.324;2023-04-06T03:22:58;94163.63;;;4.16;56.24
79461;BME280;68929;42.666;23.324;2023-04-06T03:25:23;94156.41;;;4.18;52.84
79461;BME280;68929;42.666;23.324;2023-04-06T03:27:49;94125.63;;;4.41;54.94
79461;BME280;68929;42.666;23.324;2023-04-06T03:30:15;94144.53;;;4.64;55.07
79461;BME280;68929;42.666;23.324;2023-04-06T03:32:45;94172.50;;;4.36;54.22
79461;BME280;68929;42.666;23.324;2023-04-06T03:35:10;94148.41;;;4.47;58.57
79461;BME280;68929;42.666;23.324;2023-04-06T03:37:36;94163.47;;;6.03;52.81
79461;BME280;68929;42.666;23.324;2023-04-06T03:40:02;94161.13;;;5.33;54.00
79461;BME280;68929;42.666;23.324;2023-04-06T03:42:28;94176.44;;;4.74;52.28
79461;BME280;68929;42.666;23.324;2023-04-06T03:44:53;94169.66;;;5.89;48.84
79461;BME280;68929;42.666;23.324;2023-04-06T03:47:19;94161.06;;;5.60;48.78
79461;BME280;68929;42.666;23.324;2023-04-06T03:49:44;94136.75;;;5.80;51.23
79461;BME280;68929;42.666;23.324;2023-04-06T03:52:10;94169.16;;;6.26;50.53
79461;BME280;68929;42.666;23.324;2023-04-06T03:54:35;94138.25;;;4.86;49.74
79461;BME280;68929;42.666;23.324;2023-04-06T03:57:01;94150.34;;;5.55;51.32
79461;BME280;68929;42.666;23.324;2023-04-06T03:59:26;94155.47;;;5.29;50.01
79461;BME280;68929;42.666;23.324;2023-04-06T04:01:52;94158.88;;;6.24;53.58
79461;BME280;68929;42.666;23.324;2023-04-06T04:04:17;94161.75;;;5.07;50.40
79461;BME280;68929;42.666;23.324;2023-04-06T04:06:43;94145.41;;;3.86;55.92
79461;BME280;68929;42.666;23.324;2023-04-06T04:09:08;94151.91;;;3.90;56.25
79461;BME280;68929;42.666;23.324;2023-04-06T04:11:34;94168.38;;;5.03;56.51
79461;BME280;68929;42.666;23.324;2023-04-06T04:13:59;94143.97;;;4.96;53.98
79461;BME280;68929;42.666;23.324;2023-04-06T04:16:25;94163.75;;;5.05;54.04
79461;BME280;68929;42.666;23.324;2023-04-06T04:18:50;94167.44;;;5.11;49.10
79461;BME280;68929;42.666;23.324;2023-04-06T04:21:16;94152.88;;;5.36;54.26
79461;BME280;68929;42.666;23.324;2023-04-06T04:23:41;94151.13;;;5.97;49.92
79461;BME280;68929;42.666;23.324;2023-04-06T04:26:06;94153.34;;;5.12;49.64
79461;BME280;68929;42.666;23.324;2023-04-06T04:28:32;94152.19;;;4.17;54.22
79461;BME280;68929;42.666;23.324;2023-04-06T04:30:57;94146.38;;;3.64;53.01
79461;BME280;68929;42.666;23.324;2023-04-06T04:33:23;94184.53;;;3.94;53.43
79461;BME280;68929;42.666;23.324;2023-04-06T04:35:48;94152.81;;;4.19;52.44
79461;BME280;68929;42.666;23.324;2023-04-06T04:38:14;94181.31;;;3.78;58.24
79461;BME280;68929;42.666;23.324;2023-04-06T04:40:39;94177.81;;;4.49;58.54
79461;BME280;68929;42.666;23.324;2023-04-06T04:43:05;94164.31;;;5.28;50.44
79461;BME280;68929;42.666;23.324;2023-04-06T04:45:30;94177.22;;;6.18;47.94
79461;BME280;68929;42.666;23.324;2023-04-06T04:47:56;94170.91;;;5.93;51.50
79461;BME280;68929;42.666;23.324;2023-04-06T04:50:21;94142.97;;;5.31;50.89
79461;BME280;68929;42.666;23.324;2023-04-06T04:52:47;94168.09;;;5.53;50.24
79461;BME280;68929;42.666;23.324;2023-04-06T04:55:12;94176.28;;;4.82;54.92
79461;BME280;68929;42.666;23.324;2023-04-06T04:57:38;94166.25;;;4.58;51.08
79461;BME280;68929;42.666;23.324;2023-04-06T05:00:04;94160.31;;;4.49;53.87
79461;BME280;68929;42.666;23.324;2023-04-06T05:02:29;94176.72;;;5.13;53.53
79461;BME280;68929;42.666;23.324;2023-04-06T05:04:55;94163.34;;;4.46;54.64
79461;BME280;68929;42.666;23.324;2023-04-06T05:07:21;94161.59;;;4.81;55.54
79461;BME280;68929;42.666;23.324;2023-04-06T05:09:51;94174.81;;;4.73;54.79
79461;BME280;68929;42.666;23.324;2023-04-06T05:12:18;94161.09;;;6.21;50.13
79461;BME280;68929;42.666;23.324;2023-04-06T05:14:43;94152.06;;;6.95;50.88
79461;BME280;68929;42.666;23.324;2023-04-06T05:17:09;94151.66;;;6.85;48.43
79461;BME280;68929;42.666;23.324;2023-04-06T05:19:35;94157.09;;;7.10;46.15
79461;BME280;68929;42.666;23.324;2023-04-06T05:22:00;94161.13;;;6.47;51.68
79461;BME280;68929;42.666;23.324;2023-04-06T05:24:26;94167.56;;;6.25;48.04
79461;BME280;68929;42.666;23.324;2023-04-06T05:26:51;94165.34;;;5.75;51.58
79461;BME280;68929;42.666;23.324;2023-04-06T05:29:18;94170.22;;;5.78;50.37
79461;BME280;68929;42.666;23.324;2023-04-06T05:31:43;94167.00;;;6.36;51.13
79461;BME280;68929;42.666;23.324;2023-04-06T05:34:09;94174.91;;;6.82;50.39
79461;BME280;68929;42.666;23.324;2023-04-06T05:36:35;94165.59;;;6.66;47.45
79461;BME280;68929;42.666;23.324;2023-04-06T05:39:01;94158.81;;;5.57;49.42
79461;BME280;68929;42.666;23.324;2023-04-06T05:41:26;94158.81;;;5.57;54.74
79461;BME280;68929;42.666;23.324;2023-04-06T05:43:52;94152.88;;;5.36;51.37
79461;BME280;68929;42.666;23.324;2023-04-06T05:46:18;94164.19;;;4.53;52.75
79461;BME280;68929;42.666;23.324;2023-04-06T05:48:43;94169.50;;;3.82;54.24
79461;BME280;68929;42.666;23.324;2023-04-06T05:51:08;94166.38;;;4.07;57.64
79461;BME280;68929;42.666;23.324;2023-04-06T05:53:34;94167.47;;;3.98;58.82
79461;BME280;68929;42.666;23.324;2023-04-06T05:56:03;94166.56;;;5.79;54.64
79461;BME280;68929;42.666;23.324;2023-04-06T05:58:29;94151.75;;;5.99;53.52
79461;BME280;68929;42.666;23.324;2023-04-06T06:01:01;94151.25;;;5.82;52.81
79461;BME280;68929;42.666;23.324;2023-04-06T06:03:26;94166.41;;;6.54;49.34
79461;BME280;68929;42.666;23.324;2023-04-06T06:05:52;94145.09;;;5.55;50.32
79461;BME280;68929;42.666;23.324;2023-04-06T06:08:17;94153.09;;;6.81;53.46
79461;BME280;68929;42.666;23.324;2023-04-06T06:10:43;94155.28;;;7.23;50.24
79461;BME280;68929;42.666;23.324;2023-04-06T06:13:08;94158.53;;;6.99;47.46
79461;BME280;68929;42.666;23.324;2023-04-06T06:15:35;94143.38;;;6.62;49.02
79461;BME280;68929;42.666;23.324;2023-04-06T06:18:00;94134.41;;;5.98;51.76
79461;BME280;68929;42.666;23.324;2023-04-06T06:20:26;94135.06;;;7.17;47.76
79461;BME280;68929;42.666;23.324;2023-04-06T06:22:52;94166.78;;;6.37;48.32
79461;BME280;68929;42.666;23.324;2023-04-06T06:25:17;94137.13;;;5.77;52.07
79461;BME280;68929;42.666;23.324;2023-04-06T06:27:46;94130.69;;;5.38;53.93
79461;BME280;68929;42.666;23.324;2023-04-06T06:30:17;94153.41;;;5.59;52.48
79461;BME280;68929;42.666;23.324;2023-04-06T06:32:43;94151.41;;;6.28;56.63
79461;BME280;68929;42.666;23.324;2023-04-06T06:35:08;94150.84;;;7.88;49.32
79461;BME280;68929;42.666;23.324;2023-04-06T06:37:33;94155.06;;;7.05;52.24
79461;BME280;68929;42.666;23.324;2023-04-06T06:39:59;94145.38;;;6.86;50.27
79461;BME280;68929;42.666;23.324;2023-04-06T06:42:25;94150.88;;;7.75;48.45
79461;BME280;68929;42.666;23.324;2023-04-06T06:44:51;94149.19;;;7.87;47.11
79461;BME280;68929;42.666;23.324;2023-04-06T06:47:16;94154.38;;;8.06;47.76
79461;BME280;68929;42.666;23.324;2023-04-06T06:49:42;94152.66;;;7.17;50.62
79461;BME280;68929;42.666;23.324;2023-04-06T06:52:07;94172.41;;;6.28;50.11
79461;BME280;68929;42.666;23.324;2023-04-06T06:54:33;94170.19;;;5.71;52.21
79461;BME280;68929;42.666;23.324;2023-04-06T06:57:01;94134.72;;;5.34;55.26
79461;BME280;68929;42.666;23.324;2023-04-06T06:59:26;94150.25;;;6.50;50.35
79461;BME280;68929;42.666;23.324;2023-04-06T07:01:52;94165.19;;;7.21;49.81
79461;BME280;68929;42.666;23.324;2023-04-06T07:04:17;94164.56;;;5.81;53.71
79461;BME280;68929;42.666;23.324;2023-04-06T07:06:43;94141.47;;;4.33;55.06
79461;BME280;68929;42.666;23.324;2023-04-06T07:09:08;94163.66;;;5.54;52.98
79461;BME280;68929;42.666;23.324;2023-04-06T07:11:34;94138.31;;;5.74;55.49
79461;BME280;68929;42.666;23.324;2023-04-06T07:14:04;94160.56;;;5.10;53.36
79461;BME280;68929;42.666;23.324;2023-04-06T07:16:30;94166.38;;;5.74;56.43
79461;BME280;68929;42.666;23.324;2023-04-06T07:18:55;94140.47;;;8.37;48.67
79461;BME280;68929;42.666;23.324;2023-04-06T07:21:29;94125.03;;;7.59;49.42
79461;BME280;68929;42.666;23.324;2023-04-06T07:23:54;94127.19;;;7.75;50.02
79461;BME280;68929;42.666;23.324;2023-04-06T07:26:20;94105.56;;;7.73;46.19
79461;BME280;68929;42.666;23.324;2023-04-06T07:28:57;94157.50;;;6.48;49.18
79461;BME280;68929;42.666;23.324;2023-04-06T07:31:23;94151.84;;;7.16;50.69
79461;BME280;68929;42.666;23.324;2023-04-06T07:33:48;94145.00;;;6.57;49.30
79461;BME280;68929;42.666;23.324;2023-04-06T07:36:15;94148.72;;;6.02;50.85
79461;BME280;68929;42.666;23.324;2023-04-06T07:38:40;94145.34;;;5.26;52.63
79461;BME280;68929;42.666;23.324;2023-04-06T07:41:06;94146.38;;;5.73;51.75
79461;BME280;68929;42.666;23.324;2023-04-06T07:43:33;94123.44;;;5.81;52.41
79461;BME280;68929;42.666;23.324;2023-04-06T07:45:58;94139.66;;;5.98;52.00
79461;BME280;68929;42.666;23.324;2023-04-06T07:48:25;94143.34;;;6.29;50.33
79461;BME280;68929;42.666;23.324;2023-04-06T07:50:51;94130.56;;;5.53;51.57
79461;BME280;68929;42.666;23.324;2023-04-06T07:53:16;94142.09;;;5.18;54.34
79461;BME280;68929;42.666;23.324;2023-04-06T07:55:42;94145.41;;;4.71;54.44
79461;BME280;68929;42.666;23.324;2023-04-06T07:58:20;94125.97;;;5.61;51.91
79461;BME280;68929;42.666;23.324;2023-04-06T08:00:53;94131.00;;;5.56;53.10
79461;BME280;68929;42.666;23.324;2023-04-06T08:03:20;94126.06;;;5.40;56.69
79461;BME280;68929;42.666;23.324;2023-04-06T08:05:46;94132.06;;;5.68;51.26
79461;BME280;68929;42.666;23.324;2023-04-06T08:08:12;94136.69;;;6.27;53.24
79461;BME280;68929;42.666;23.324;2023-04-06T08:10:43;94142.13;;;7.30;49.72
79461;BME280;68929;42.666;23.324;2023-04-06T08:13:10;94144.50;;;7.45;49.81
79461;BME280;68929;42.666;23.324;2023-04-06T08:15:35;94130.88;;;5.78;54.81
79461;BME280;68929;42.666;23.324;2023-04-06T08:18:01;94142.56;;;6.55;51.30
79461;BME280;68929;42.666;23.324;2023-04-06T08:20:26;94147.84;;;6.94;49.16
79461;BME280;68929;42.666;23.324;2023-04-06T08:22:52;94150.28;;;5.42;52.72
79461;BME280;68929;42.666;23.324;2023-04-06T08:25:24;94144.97;;;4.95;53.45
79461;BME280;68929;42.666;23.324;2023-04-06T08:27:49;94164.25;;;5.90;54.53
79461;BME280;68929;42.666;23.324;2023-04-06T08:30:16;94157.09;;;6.38;51.17
79461;BME280;68929;42.666;23.324;2023-04-06T08:32:41;94130.44;;;6.80;50.02
79461;BME280;68929;42.666;23.324;2023-04-06T08:35:08;94137.25;;;7.27;49.43
79461;BME280;68929;42.666;23.324;2023-04-06T08:37:33;94145.75;;;7.22;52.41
79461;BME280;68929;42.666;23.324;2023-04-06T08:39:59;94167.22;;;6.93;52.00
79461;BME280;68929;42.666;23.324;2023-04-06T08:42:26;94140.13;;;6.99;47.10
79461;BME280;68929;42.666;23.324;2023-04-06T08:44:53;94134.88;;;6.99;46.57
79461;BME280;68929;42.666;23.324;2023-04-06T08:47:19;94134.72;;;7.65;45.06
79461;BME280;68929;42.666;23.324;2023-04-06T08:49:58;94140.69;;;7.34;45.93
79461;BME280;68929;42.666;23.324;2023-04-06T08:52:27;94157.13;;;6.77;51.00
79461;BME280;68929;42.666;23.324;2023-04-06T08:54:53;94137.69;;;7.17;46.65
79461;BME280;68929;42.666;23.324;2023-04-06T08:57:18;94169.13;;;8.14;46.43
79461;BME280;68929;42.666;23.324;2023-04-06T08:59:45;94160.34;;;6.66;47.38
79461;BME280;68929;42.666;23.324;2023-04-06T09:02:15;94136.91;;;7.04;49.33
79461;BME280;68929;42.666;23.324;2023-04-06T09:04:48;94142.44;;;5.90;49.48
79461;BME280;68929;42.666;23.324;2023-04-06T09:07:17;94157.69;;;5.73;53.05
79461;BME280;68929;42.666;23.324;2023-04-06T09:09:43;94148.16;;;6.26;50.72
79461;BME280;68929;42.666;23.324;2023-04-06T09:12:33;94155.03;;;6.20;49.42
79461;BME280;68929;42.666;23.324;2023-04-06T09:15:01;94152.94;;;5.90;49.66
79461;BME280;68929;42.666;23.324;2023-04-06T09:19:54;94156.16;;;5.10;51.18
79461;BME280;68929;42.666;23.324;2023-04-06T09:22:34;94150.75;;;5.52;51.65
79461;BME280;68929;42.666;23.324;2023-04-06T09:25:00;94134.41;;;7.42;45.96
79461;BME280;68929;42.666;23.324;2023-04-06T09:27:32;94135.69;;;8.28;48.31
79461;BME280;68929;42.666;23.324;2023-04-06T09:30:12;94154.00;;;8.03;45.41
79461;BME280;68929;42.666;23.324;2023-04-06T09:32:56;94146.22;;;8.83;47.53
79461;BME280;68929;42.666;23.324;2023-04-06T09:35:22;94157.53;;;8.91;45.22
79461;BME280;68929;42.666;23.324;2023-04-06T09:38:09;94144.63;;;8.14;47.26
79461;BME280;68929;42.666;23.324;2023-04-06T09:40:35;94135.09;;;8.57;43.65
79461;BME280;68929;42.666;23.324;2023-04-06T09:43:00;94129.94;;;7.93;46.50
79461;BME280;68929;42.666;23.324;2023-04-06T09:45:29;94110.50;;;7.50;44.09
79461;BME280;68929;42.666;23.324;2023-04-06T09:47:59;94145.16;;;8.35;46.75
79461;BME280;68929;42.666;23.324;2023-04-06T09:50:37;94113.84;;;8.14;43.33
79461;BME280;68929;42.666;23.324;2023-04-06T09:53:08;94123.25;;;7.97;46.71
79461;BME280;68929;42.666;23.324;2023-04-06T09:55:40;94151.19;;;9.77;41.41
79461;BME280;68929;42.666;23.324;2023-04-06T09:58:09;94106.09;;;8.81;41.55
79461;BME280;68929;42.666;23.324;2023-04-06T10:00:48;94135.31;;;9.65;40.01
79461;BME280;68929;42.666;23.324;2023-04-06T10:06:03;94137.81;;;10.08;40.34
79461;BME280;68929;42.666;23.324;2023-04-06T10:08:33;94142.09;;;8.94;41.45
79461;BME280;68929;42.666;23.324;2023-04-06T10:11:01;94148.31;;;9.00;44.67
79461;BME280;68929;42.666;23.324;2023-04-06T10:13:27;94138.38;;;10.17;39.60
79461;BME280;68929;42.666;23.324;2023-04-06T10:15:52;94143.66;;;11.92;38.19
79461;BME280;68929;42.666;23.324;2023-04-06T10:18:20;94149.72;;;9.81;39.69
79461;BME280;68929;42.666;23.324;2023-04-06T10:20:52;94131.75;;;9.35;39.05
79461;BME280;68929;42.666;23.324;2023-04-06T10:23:43;94130.16;;;9.10;42.91
79461;BME280;68929;42.666;23.324;2023-04-06T10:26:17;94122.03;;;9.54;39.30
79461;BME280;68929;42.666;23.324;2023-04-06T10:28:46;94140.56;;;9.47;40.67
79461;BME280;68929;42.666;23.324;2023-04-06T10:31:15;94093.28;;;7.98;42.48
79461;BME280;68929;42.666;23.324;2023-04-06T10:34:11;94121.75;;;7.70;47.38
79461;BME280;68929;42.666;23.324;2023-04-06T10:36:40;94119.69;;;8.16;44.40
79461;BME280;68929;42.666;23.324;2023-04-06T10:39:05;94111.47;;;8.06;46.34
79461;BME280;68929;42.666;23.324;2023-04-06T10:41:36;94118.00;;;8.35;43.10
79461;BME280;68929;42.666;23.324;2023-04-06T10:44:23;94125.00;;;10.12;42.32
79461;BME280;68929;42.666;23.324;2023-04-06T10:46:57;94130.25;;;11.47;36.82
79461;BME280;68929;42.666;23.324;2023-04-06T10:49:25;94111.06;;;12.76;37.15
79461;BME280;68929;42.666;23.324;2023-04-06T10:51:56;94111.56;;;11.65;36.12
79461;BME280;68929;42.666;23.324;2023-04-06T10:54:29;94119.41;;;10.50;39.51
79461;BME280;68929;42.666;23.324;2023-04-06T10:56:55;94134.78;;;9.57;40.42
79461;BME280;68929;42.666;23.324;2023-04-06T10:59:29;94122.47;;;7.90;42.49
79461;BME280;68929;42.666;23.324;2023-04-06T11:02:00;94121.19;;;7.99;42.83
79461;BME280;68929;42.666;23.324;2023-04-06T11:04:26;94128.47;;;8.03;43.66
79461;BME280;68929;42.666;23.324;2023-04-06T11:06:55;94096.38;;;8.26;43.47
79461;BME280;68929;42.666;23.324;2023-04-06T11:09:28;94103.94;;;8.47;44.23
79461;BME280;68929;42.666;23.324;2023-04-06T11:11:53;94104.16;;;8.08;42.52
79461;BME280;68929;42.666;23.324;2023-04-06T11:14:20;94098.28;;;9.36;44.67
79461;BME280;68929;42.666;23.324;2023-04-06T11:16:47;94097.53;;;9.29;43.84
79461;BME280;68929;42.666;23.324;2023-04-06T11:19:20;94091.53;;;9.58;43.33
79461;BME280;68929;42.666;23.324;2023-04-06T11:21:47;94104.44;;;9.66;40.71
79461;BME280;68929;42.666;23.324;2023-04-06T11:24:23;94089.13;;;10.64;40.14
79461;BME280;68929;42.666;23.324;2023-04-06T11:26:51;94075.13;;;10.86;39.36
79461;BME280;68929;42.666;23.324;2023-04-06T11:29:18;94093.59;;;10.75;39.33
79461;BME280;68929;42.666;23.324;2023-04-06T11:32:04;94100.59;;;9.08;40.52
79461;BME280;68929;42.666;23.324;2023-04-06T11:34:36;94091.91;;;9.25;42.86
79461;BME280;68929;42.666;23.324;2023-04-06T11:37:09;94096.72;;;7.54;45.05
79461;BME280;68929;42.666;23.324;2023-04-06T11:39:40;94094.31;;;6.69;46.35
79461;BME280;68929;42.666;23.324;2023-04-06T11:42:06;94086.63;;;6.48;46.71
79461;BME280;68929;42.666;23.324;2023-04-06T11:44:36;94054.34;;;7.24;46.46
79461;BME280;68929;42.666;23.324;2023-04-06T11:47:10;94080.38;;;6.36;48.13
79461;BME280;68929;42.666;23.324;2023-04-06T11:49:52;94064.97;;;6.85;47.42
79461;BME280;68929;42.666;23.324;2023-04-06T11:52:19;94089.56;;;7.23;46.00
79461;BME280;68929;42.666;23.324;2023-04-06T11:54:46;94066.38;;;5.90;47.66
79461;BME280;68929;42.666;23.324;2023-04-06T11:57:12;94063.19;;;6.14;47.55
79461;BME280;68929;42.666;23.324;2023-04-06T11:59:38;94078.72;;;6.22;47.33
79461;BME280;68929;42.666;23.324;2023-04-06T12:02:04;94071.88;;;6.47;49.88
79461;BME280;68929;42.666;23.324;2023-04-06T12:04:33;94077.88;;;7.06;45.41
79461;BME280;68929;42.666;23.324;2023-04-06T12:06:59;94056.34;;;7.36;49.78
79461;BME280;68929;42.666;23.324;2023-04-06T12:09:24;94061.63;;;7.80;44.00
79461;BME280;68929;42.666;23.324;2023-04-06T12:11:50;94054.28;;;6.28;48.09
79461;BME280;68929;42.666;23.324;2023-04-06T12:14:15;94061.38;;;6.67;47.37
79461;BME280;68929;42.666;23.324;2023-04-06T12:16:41;94062.75;;;6.82;46.16
79461;BME280;68929;42.666;23.324;2023-04-06T12:19:11;94086.31;;;7.21;50.75
79461;BME280;68929;42.666;23.324;2023-04-06T12:21:37;94064.97;;;6.85;48.01
79461;BME280;68929;42.666;23.324;2023-04-06T12:24:03;94063.41;;;6.19;51.50
79461;BME280;68929;42.666;23.324;2023-04-06T12:26:35;94070.97;;;7.05;44.97
79461;BME280;68929;42.666;23.324;2023-04-06T12:29:01;94081.75;;;6.19;49.53
79461;BME280;68929;42.666;23.324;2023-04-06T12:31:37;94054.09;;;6.23;47.75
79461;BME280;68929;42.666;23.324;2023-04-06T12:34:13;94073.09;;;6.38;47.50
79461;BME280;68929;42.666;23.324;2023-04-06T12:36:38;94042.81;;;6.42;50.40
79461;BME280;68929;42.666;23.324;2023-04-06T12:39:05;94050.88;;;8.68;46.55
79461;BME280;68929;42.666;23.324;2023-04-06T12:41:31;94057.50;;;7.53;44.74
79461;BME280;68929;42.666;23.324;2023-04-06T12:44:03;94045.41;;;8.14;43.73
79461;BME280;68929;42.666;23.324;2023-04-06T12:46:31;94050.44;;;6.76;45.56
79461;BME280;68929;42.666;23.324;2023-04-06T12:48:59;94055.28;;;6.79;47.03
79461;BME280;68929;42.666;23.324;2023-04-06T12:51:30;94049.03;;;7.44;46.34
79461;BME280;68929;42.666;23.324;2023-04-06T12:54:05;94042.28;;;7.10;45.23
79461;BME280;68929;42.666;23.324;2023-04-06T12:56:31;94036.97;;;7.99;47.27
79461;BME280;68929;42.666;23.324;2023-04-06T12:58:57;94029.34;;;8.96;44.08
79461;BME280;68929;42.666;23.324;2023-04-06T13:01:23;94046.75;;;8.97;41.95
79461;BME280;68929;42.666;23.324;2023-04-06T13:03:49;94047.22;;;9.48;43.96
79461;BME280;68929;42.666;23.324;2023-04-06T13:06:14;94041.28;;;9.17;46.32